Buffalo Lake, North Carolina
Current Conditions -  °F | °C
As of 12:55 AM on Tuesday 27 Jan 2015 (Local Time) from KTTA Reporting Station
Drizzle Drizzle  
Wind Chill: 34°   Ceiling: 3000
Heat Index: 41°   Visibility: 10mi
Dew Point: 33°   Wind: 12mph
Humidity: 75%   Direction: 330°NNW
Pressure: 29.7"   Gusts: 17mph
Location:  35.493°N, 79.1765°W
Report Text: KTTA 270555Z AUTO 33010G15KT 10SM -DZ OVC030 05/01 A2970 RMK AO2 60002 T00480007 10080 20048 400950003
Loading
Personal Weather Stations






























Interactive Weather Map New forecast layout! Learn more

10-Day Weather Forecast

Advertisements
Track Severe Weather on mobile